Time;durP1;ratioP1;P1;durP2;ratioP2;P2;SDS_P1;SDS_P2;PMS_P1;PMS_P2;Temp;Humidity;BMP_temperature;BMP_pressure;BME280_temperature;BME280_humidity;BME280_pressure;Samples;Min_cycle;Max_cycle;Signal;HPM_P1;HPM_P2
2021/09/19 00:00:43;;;;;;;6.88;3.22;;;;;;;13.02;74.61;101886.06;10198558;28;20496;-69
2021/09/19 00:05:39;;;;;;;7.45;3.33;;;;;;;13.00;74.63;101877.31;10199119;28;20073;-69
2021/09/19 00:10:36;;;;;;;8.27;3.75;;;;;;;12.97;74.90;101869.66;10198199;28;20049;-70
2021/09/19 00:15:32;;;;;;;7.38;3.80;;;;;;;12.90;74.63;101869.28;10197253;28;20077;-70
2021/09/19 00:20:29;;;;;;;7.13;3.42;;;;;;;12.87;74.65;101867.16;10197607;28;20058;-69
2021/09/19 00:25:26;;;;;;;8.63;3.85;;;;;;;12.76;74.71;101870.06;10197691;28;20046;-68
2021/09/19 00:30:22;;;;;;;8.88;4.18;;;;;;;12.74;75.16;101868.75;10197832;28;20053;-70
2021/09/19 00:35:19;;;;;;;12.30;3.92;;;;;;;12.71;75.42;101872.13;10196520;28;20054;-69
2021/09/19 00:40:16;;;;;;;5.80;3.50;;;;;;;12.63;75.42;101866.22;10196906;28;20507;-70
2021/09/19 00:45:17;;;;;;;8.93;4.07;;;;;;;12.58;76.03;101858.09;10196495;28;20484;-69
2021/09/19 00:50:17;;;;;;;8.07;3.78;;;;;;;12.56;76.12;101860.31;10197493;28;20088;-70
2021/09/19 00:55:15;;;;;;;8.45;3.75;;;;;;;12.42;76.18;101859.50;10190929;28;20041;-70
2021/09/19 01:00:15;;;;;;;8.70;3.58;;;;;;;12.57;76.40;101872.09;10196606;28;20084;-70
2021/09/19 01:05:13;;;;;;;7.22;3.47;;;;;;;12.67;76.36;101860.94;10195032;28;20468;-69
2021/09/19 01:10:10;;;;;;;6.97;3.40;;;;;;;12.71;76.08;101859.19;10195332;28;20054;-69
2021/09/19 01:15:08;;;;;;;7.95;3.75;;;;;;;12.75;76.10;101862.16;10195842;28;20677;-70
2021/09/19 01:20:09;;;;;;;8.35;3.17;;;;;;;12.72;75.75;101857.28;10194896;28;20480;-71
2021/09/19 01:25:11;;;;;;;7.07;3.10;;;;;;;12.73;76.22;101865.19;10195675;28;20091;-70
2021/09/19 01:30:09;;;;;;;5.97;3.17;;;;;;;12.74;76.38;101872.34;10194370;28;20046;-69
2021/09/19 01:35:06;;;;;;;7.47;3.60;;;;;;;12.75;76.60;101868.47;10195586;28;20108;-69
2021/09/19 01:40:04;;;;;;;5.72;3.35;;;;;;;12.76;76.26;101869.28;10193866;28;20466;-70
2021/09/19 01:45:01;;;;;;;7.70;2.95;;;;;;;12.78;76.37;101862.34;10195013;28;20046;-70
2021/09/19 01:49:57;;;;;;;7.38;3.75;;;;;;;12.77;76.57;101874.47;10193743;28;20089;-70
2021/09/19 01:54:54;;;;;;;14.18;3.85;;;;;;;12.82;76.17;101868.88;10193399;28;20177;-70
2021/09/19 01:59:52;;;;;;;6.85;3.40;;;;;;;12.81;75.77;101877.41;10190252;28;20100;-69
2021/09/19 02:04:51;;;;;;;8.05;3.67;;;;;;;12.83;75.94;101865.03;10194293;28;20074;-69
2021/09/19 02:09:47;;;;;;;6.35;2.92;;;;;;;12.81;75.84;101864.50;10189820;28;20072;-69
2021/09/19 02:14:44;;;;;;;8.25;4.50;;;;;;;12.75;75.29;101862.97;10193987;28;20070;-70
2021/09/19 02:19:41;;;;;;;8.52;3.15;;;;;;;12.83;75.60;101848.56;10189160;28;20531;-69
2021/09/19 02:24:39;;;;;;;12.50;3.30;;;;;;;12.90;75.92;101858.28;10192629;28;20081;-69
2021/09/19 02:29:36;;;;;;;7.70;3.08;;;;;;;12.90;75.79;101850.06;10189152;28;20080;-69
2021/09/19 02:34:32;;;;;;;8.75;3.45;;;;;;;12.97;75.54;101850.44;10193685;28;20077;-70
2021/09/19 02:39:29;;;;;;;6.03;3.70;;;;;;;12.98;75.18;101849.34;10189047;28;20073;-69
2021/09/19 02:44:25;;;;;;;6.75;3.28;;;;;;;12.98;75.59;101846.59;10193184;28;20042;-67
2021/09/19 02:49:22;;;;;;;7.03;3.53;;;;;;;13.00;75.42;101855.34;10193076;28;20116;-69
2021/09/19 02:54:18;;;;;;;7.03;3.35;;;;;;;12.92;75.56;101850.56;10189050;28;20532;-70
2021/09/19 02:59:15;;;;;;;7.90;3.45;;;;;;;12.94;75.67;101854.63;10192870;28;20041;-70
2021/09/19 03:04:12;;;;;;;6.90;3.45;;;;;;;12.94;76.10;101853.81;10192732;28;20038;-69
2021/09/19 03:09:08;;;;;;;7.15;3.50;;;;;;;12.93;76.37;101864.00;10197583;28;20046;-70
2021/09/19 03:14:04;;;;;;;6.00;3.15;;;;;;;12.92;76.32;101853.31;10200701;28;20084;-69
2021/09/19 03:19:01;;;;;;;5.95;3.35;;;;;;;12.90;76.08;101852.81;10196385;28;20081;-69
2021/09/19 03:23:57;;;;;;;6.40;3.03;;;;;;;12.88;75.81;101844.91;10200801;28;20088;-70
2021/09/19 03:28:54;;;;;;;6.00;3.10;;;;;;;12.88;76.03;101846.81;10204652;28;20061;-68
2021/09/19 03:33:50;;;;;;;7.25;3.30;;;;;;;12.88;76.43;101850.38;10200241;28;20034;-70
2021/09/19 03:38:47;;;;;;;7.53;3.33;;;;;;;12.88;76.45;101849.53;10199405;28;20049;-69
2021/09/19 03:43:43;;;;;;;8.30;3.28;;;;;;;12.88;76.01;101849.53;10199395;28;20038;-70
2021/09/19 03:48:40;;;;;;;9.30;3.10;;;;;;;12.91;76.36;101854.44;10199642;28;20069;-69
2021/09/19 03:53:36;;;;;;;9.18;3.22;;;;;;;12.90;75.93;101852.81;10199037;28;20133;-69
2021/09/19 03:58:32;;;;;;;5.80;2.92;;;;;;;12.88;75.74;101855.03;10195434;28;20070;-69
2021/09/19 04:03:29;;;;;;;6.18;3.15;;;;;;;12.82;75.43;101859.81;10198525;28;20046;-68
2021/09/19 04:08:25;;;;;;;7.55;2.70;;;;;;;12.76;75.64;101858.28;10191899;28;20050;-69
2021/09/19 04:13:22;;;;;;;7.50;3.35;;;;;;;12.74;74.96;101861.34;10197995;28;20108;-70
2021/09/19 04:18:18;;;;;;;7.88;3.45;;;;;;;12.76;74.42;101864.59;10197645;28;20173;-70
2021/09/19 04:23:15;;;;;;;6.28;3.28;;;;;;;12.82;75.08;101868.06;10198118;28;20526;-67
2021/09/19 04:28:11;;;;;;;9.02;2.85;;;;;;;12.70;74.21;101871.31;10197546;28;20045;-70
2021/09/19 04:33:08;;;;;;;7.18;3.13;;;;;;;12.78;73.98;101867.84;10197674;28;20192;-70
2021/09/19 04:38:05;;;;;;;9.07;3.03;;;;;;;12.71;73.99;101861.94;10197744;28;20049;-70
2021/09/19 04:43:01;;;;;;;7.82;2.60;;;;;;;12.68;73.48;101865.31;10197447;28;20069;-69
2021/09/19 04:47:58;;;;;;;6.00;3.15;;;;;;;12.78;73.81;101862.34;10195042;28;20072;-69
2021/09/19 04:52:54;;;;;;;6.40;2.67;;;;;;;12.76;74.14;101866.53;10196949;28;20053;-70
2021/09/19 04:57:51;;;;;;;5.75;2.58;;;;;;;12.76;73.82;101859.09;10195935;28;20548;-70
2021/09/19 05:02:47;;;;;;;6.55;3.00;;;;;;;12.80;72.85;101856.56;10195689;28;20077;-69
2021/09/19 05:07:44;;;;;;;6.38;2.80;;;;;;;12.74;73.39;101864.09;10195943;28;20052;-70
2021/09/19 05:12:40;;;;;;;7.88;3.28;;;;;;;12.74;71.75;101855.88;10196562;28;20204;-69
2021/09/19 05:17:37;;;;;;;8.65;3.10;;;;;;;12.73;71.61;101865.19;10195789;28;20057;-70
2021/09/19 05:22:34;;;;;;;8.45;3.55;;;;;;;12.79;72.00;101864.00;10196102;28;20516;-70
2021/09/19 05:27:31;;;;;;;5.70;2.83;;;;;;;12.78;71.94;101867.84;10195298;28;20042;-69
2021/09/19 05:32:28;;;;;;;8.65;2.80;;;;;;;12.79;71.71;101868.69;10194329;28;20042;-70
2021/09/19 05:37:24;;;;;;;5.57;2.75;;;;;;;12.73;71.08;101875.38;10194519;28;20092;-71
2021/09/19 05:42:21;;;;;;;5.40;2.70;;;;;;;12.76;71.14;101867.31;10195012;28;20069;-70
2021/09/19 05:47:17;;;;;;;6.00;2.97;;;;;;;12.82;71.07;101868.88;10195935;28;20571;-70
2021/09/19 05:52:14;;;;;;;6.28;3.00;;;;;;;12.80;70.97;101865.59;10192332;28;20527;-70
2021/09/19 05:57:10;;;;;;;8.13;3.10;;;;;;;12.83;70.83;101870.50;10194143;28;20054;-70
2021/09/19 06:02:07;;;;;;;8.68;2.95;;;;;;;12.81;70.82;101867.25;10194472;28;20132;-69
2021/09/19 06:07:03;;;;;;;6.82;2.83;;;;;;;12.85;70.33;101862.75;10194272;28;20455;-71
2021/09/19 06:12:00;;;;;;;5.75;2.67;;;;;;;12.84;70.10;101865.81;10194563;28;20508;-70
2021/09/19 06:16:56;;;;;;;5.63;2.92;;;;;;;12.80;70.17;101871.09;10193874;28;20069;-69
2021/09/19 06:21:53;;;;;;;5.90;2.55;;;;;;;12.77;70.60;101874.47;10194108;28;20089;-71
2021/09/19 06:26:49;;;;;;;4.78;2.78;;;;;;;12.90;70.04;101883.00;10193501;28;20058;-70
2021/09/19 06:31:46;;;;;;;6.65;2.75;;;;;;;12.85;69.29;101872.94;10193995;28;20053;-68
2021/09/19 06:36:42;;;;;;;5.60;2.67;;;;;;;12.93;69.85;101876.91;10194542;28;20088;-71
2021/09/19 06:41:39;;;;;;;6.50;3.28;;;;;;;12.96;69.79;101876.28;10193211;28;20476;-69
2021/09/19 06:46:35;;;;;;;6.30;3.00;;;;;;;13.05;69.81;101877.22;10193741;28;20070;-69
2021/09/19 06:51:32;;;;;;;7.68;2.78;;;;;;;13.09;69.57;101878.22;10193077;28;20111;-70
2021/09/19 06:56:28;;;;;;;6.30;2.65;;;;;;;13.07;70.08;101880.47;10193082;28;20165;-70
2021/09/19 07:01:25;;;;;;;5.65;2.67;;;;;;;13.07;69.14;101869.47;10192828;28;20057;-70
2021/09/19 07:06:22;;;;;;;5.28;2.60;;;;;;;13.16;69.17;101875.88;10192708;28;20054;-67
2021/09/19 07:11:18;;;;;;;11.35;2.80;;;;;;;13.21;69.46;101875.75;10192591;28;20096;-70
2021/09/19 07:16:15;;;;;;;6.22;2.63;;;;;;;13.20;70.04;101863.13;10192760;28;20554;-70
2021/09/19 07:21:11;;;;;;;5.30;2.30;;;;;;;13.20;68.01;101868.63;10192570;28;20132;-70
2021/09/19 07:26:08;;;;;;;6.18;2.80;;;;;;;13.30;68.64;101858.56;10192125;28;20073;-69
2021/09/19 07:31:05;;;;;;;5.15;2.35;;;;;;;13.44;68.40;101857.44;10192893;28;20476;-69
2021/09/19 07:36:02;;;;;;;8.18;3.00;;;;;;;13.52;66.96;101858.63;10191740;28;20042;-70
2021/09/19 07:40:59;;;;;;;5.28;2.58;;;;;;;13.62;68.00;101863.91;10192530;28;20073;-71
2021/09/19 07:45:56;;;;;;;5.60;2.17;;;;;;;13.66;67.06;101870.38;10191892;28;20073;-70
2021/09/19 07:50:53;;;;;;;6.15;2.20;;;;;;;13.73;67.22;101874.66;10192430;28;20079;-71
2021/09/19 07:55:50;;;;;;;4.25;2.08;;;;;;;13.71;64.03;101874.13;10195570;28;20116;-70
2021/09/19 08:00:46;;;;;;;5.13;2.03;;;;;;;13.86;66.05;101895.78;10199580;28;20054;-70
2021/09/19 08:05:43;;;;;;;5.40;2.65;;;;;;;13.95;67.83;101893.91;10198443;28;20132;-70
2021/09/19 08:10:39;;;;;;;5.35;2.33;;;;;;;13.92;65.85;101900.00;10198765;28;20088;-71
2021/09/19 08:15:36;;;;;;;5.40;2.75;;;;;;;13.95;67.28;101904.91;10198066;28;20125;-70
2021/09/19 08:20:33;;;;;;;4.05;1.92;;;;;;;14.07;67.29;101902.41;10198649;28;20073;-70
2021/09/19 08:25:29;;;;;;;6.55;2.80;;;;;;;14.10;66.42;101901.75;10197711;28;20539;-70
2021/09/19 08:30:26;;;;;;;6.20;1.98;;;;;;;14.17;64.33;101901.34;10197878;28;20042;-70
2021/09/19 08:35:23;;;;;;;5.93;2.70;;;;;;;14.27;65.41;101895.59;10198065;28;20575;-71
2021/09/19 08:40:20;;;;;;;4.93;2.22;;;;;;;14.34;65.87;101897.88;10197495;28;20054;-70
2021/09/19 08:45:16;;;;;;;6.68;2.47;;;;;;;14.41;65.24;101906.53;10196730;28;20042;-71
2021/09/19 08:50:13;;;;;;;4.55;2.10;;;;;;;14.48;65.11;101906.88;10197363;28;20077;-71
2021/09/19 08:55:10;;;;;;;6.10;2.08;;;;;;;14.55;65.22;101905.63;10196808;28;20200;-69
2021/09/19 09:00:14;;;;;;;6.43;2.35;;;;;;;14.61;63.31;101896.13;10196253;28;20046;-70
2021/09/19 09:05:18;;;;;;;5.55;2.00;;;;;;;14.79;65.21;101902.53;10195692;28;20073;-70
2021/09/19 09:10:14;;;;;;;4.82;2.33;;;;;;;14.87;63.89;101902.53;10196345;28;20082;-70
2021/09/19 09:15:11;;;;;;;5.93;2.33;;;;;;;14.97;63.71;101900.63;10196756;28;20092;-71
2021/09/19 09:20:09;;;;;;;4.63;2.30;;;;;;;15.06;63.92;101913.31;10195824;28;20085;-70
2021/09/19 09:25:17;;;;;;;4.75;2.47;;;;;;;15.12;63.63;101902.94;10194962;28;20081;-69
2021/09/19 09:30:18;;;;;;;4.25;2.03;;;;;;;15.13;61.65;101904.56;10187957;28;20046;-70
2021/09/19 09:35:16;;;;;;;4.70;2.10;;;;;;;15.29;61.78;101902.16;10195411;28;20469;-69
2021/09/19 09:40:18;;;;;;;7.28;2.28;;;;;;;15.40;60.73;101897.19;10195289;28;20081;-70
2021/09/19 09:45:24;;;;;;;4.20;2.00;;;;;;;15.49;61.75;101900.75;10195403;28;20049;-70
2021/09/19 09:50:26;;;;;;;5.68;2.13;;;;;;;15.49;60.53;101907.06;10187859;28;20069;-70
2021/09/19 09:55:22;;;;;;;5.07;2.30;;;;;;;15.48;60.61;101899.13;10194003;28;20081;-70
2021/09/19 10:00:21;;;;;;;5.03;2.28;;;;;;;15.54;60.19;101906.91;10195234;28;20479;-71
2021/09/19 10:05:19;;;;;;;4.22;2.13;;;;;;;15.57;60.93;101898.03;10193477;28;20081;-70
2021/09/19 10:10:20;;;;;;;6.82;2.13;;;;;;;15.59;60.28;101892.16;10194426;28;20077;-70
2021/09/19 10:15:18;;;;;;;6.32;2.20;;;;;;;15.54;60.64;101903.34;10186660;28;20077;-71
2021/09/19 10:20:23;;;;;;;4.22;2.03;;;;;;;15.46;60.26;101906.94;10193608;28;20081;-70
2021/09/19 10:25:40;;;;;;;4.70;2.10;;;;;;;15.58;60.56;101898.81;10193044;28;20052;-70
2021/09/19 10:30:36;;;;;;;3.85;2.03;;;;;;;15.62;61.82;101901.72;10187273;28;20037;-70
2021/09/19 10:35:33;;;;;;;6.10;2.95;;;;;;;15.59;59.25;101900.44;10195407;28;20128;-70
2021/09/19 10:40:36;;;;;;;5.50;2.10;;;;;;;15.70;60.58;101901.78;10193340;28;20547;-70
2021/09/19 10:45:43;;;;;;;5.10;1.95;;;;;;;15.72;60.48;101896.75;10193666;28;20412;-71
2021/09/19 10:50:41;;;;;;;6.63;2.30;;;;;;;15.84;60.72;101901.63;10190174;28;20091;-70
2021/09/19 10:55:57;;;;;;;6.10;1.95;;;;;;;15.74;59.19;101891.72;10193022;28;20188;-71
2021/09/19 11:01:14;;;;;;;5.07;2.05;;;;;;;15.95;59.19;101886.34;10192495;28;20100;-71
2021/09/19 11:06:44;;;;;;;5.38;2.35;;;;;;;16.18;59.40;101884.22;10192223;28;20046;-71
2021/09/19 11:11:40;;;;;;;6.53;2.17;;;;;;;16.22;59.31;101880.78;10161066;28;20089;-70
2021/09/19 11:16:38;;;;;;;5.03;2.10;;;;;;;16.24;57.85;101871.03;10192393;28;20046;-70
2021/09/19 11:21:42;;;;;;;4.25;2.15;;;;;;;16.33;57.72;101873.78;10193013;28;20054;-70
2021/09/19 11:26:47;;;;;;;5.50;2.13;;;;;;;16.37;57.80;101874.75;10192359;28;20121;-70
2021/09/19 11:31:46;;;;;;;6.45;2.13;;;;;;;16.39;55.95;101878.00;10193788;28;20042;-71
2021/09/19 11:36:45;;;;;;;5.50;2.15;;;;;;;16.52;58.33;101865.94;10195669;28;20073;-70
2021/09/19 11:41:44;;;;;;;5.90;2.38;;;;;;;16.54;58.10;101869.16;10199490;28;20136;-71
2021/09/19 11:46:47;;;;;;;6.07;2.53;;;;;;;16.53;59.04;101867.56;10200302;28;20050;-71
2021/09/19 11:51:44;;;;;;;5.40;2.50;;;;;;;16.42;59.47;101866.28;10199211;28;20515;-71
2021/09/19 11:56:45;;;;;;;5.18;2.53;;;;;;;16.19;58.38;101866.50;10199567;28;21893;-71
2021/09/19 12:01:42;;;;;;;7.15;2.53;;;;;;;16.06;59.63;101874.97;10199132;28;20066;-70
2021/09/19 12:06:41;;;;;;;7.97;2.75;;;;;;;16.00;59.99;101871.59;10198557;28;20668;-71
2021/09/19 12:11:41;;;;;;;7.78;2.92;;;;;;;16.02;60.37;101868.50;10186127;28;20492;-69
2021/09/19 12:16:38;;;;;;;6.75;2.03;;;;;;;15.99;59.54;101858.94;10197787;28;20526;-70
2021/09/19 12:21:35;;;;;;;5.25;2.30;;;;;;;16.18;59.05;101856.63;10198192;28;20045;-70
2021/09/19 12:26:32;;;;;;;6.53;2.35;;;;;;;16.39;59.13;101856.72;10197861;28;20085;-71
2021/09/19 12:31:46;;;;;;;5.15;2.28;;;;;;;16.73;58.72;101848.63;10196886;28;20053;-70
2021/09/19 12:36:51;;;;;;;5.38;2.15;;;;;;;17.31;55.90;101833.19;10197363;28;20075;-70
2021/09/19 12:41:50;;;;;;;4.82;1.77;;;;;;;18.18;52.72;101829.66;10197818;28;20046;-70
2021/09/19 12:46:57;;;;;;;4.25;1.90;;;;;;;17.83;52.05;101824.50;10198192;28;20496;-70
2021/09/19 12:52:00;;;;;;;4.47;1.67;;;;;;;17.24;52.70;101824.63;10198702;28;20046;-71
2021/09/19 12:56:56;;;;;;;;;;;;;;;16.93;54.23;101825.81;10198595;28;20053;-71
2021/09/19 13:01:53;;;;;;;5.85;2.10;;;;;;;16.69;55.86;101820.09;10198044;28;20376;-70
2021/09/19 13:06:49;;;;;;;3.97;2.00;;;;;;;16.49;56.60;101824.38;10196989;28;20045;-69
2021/09/19 13:11:46;;;;;;;4.40;1.85;;;;;;;16.32;56.65;101828.03;10198074;28;20042;-70
2021/09/19 13:16:42;;;;;;;5.47;2.03;;;;;;;16.22;57.38;101822.84;10197240;28;20076;-70
2021/09/19 13:21:40;;;;;;;7.53;2.10;;;;;;;16.17;58.74;101821.06;10197560;28;20054;-70
2021/09/19 13:26:37;;;;;;;4.43;1.65;;;;;;;16.16;58.55;101809.25;10196546;28;20100;-71
2021/09/19 13:31:34;;;;;;;4.85;1.85;;;;;;;16.15;59.72;101812.31;10196276;28;20073;-71
2021/09/19 13:36:31;;;;;;;3.47;1.63;;;;;;;16.25;59.58;101811.97;10198491;28;20046;-70
2021/09/19 13:41:28;;;;;;;5.90;2.30;;;;;;;16.30;59.91;101814.56;10196368;28;20508;-68
2021/09/19 13:46:28;;;;;;;5.55;2.35;;;;;;;16.24;61.23;101815.06;10196236;28;20049;-69
2021/09/19 13:51:24;;;;;;;8.02;2.35;;;;;;;16.00;60.70;101805.38;10195583;28;20054;-70
2021/09/19 13:56:22;;;;;;;6.15;2.78;;;;;;;15.92;61.41;101814.47;10195675;28;21989;-71
2021/09/19 14:01:18;;;;;;;7.63;2.17;;;;;;;15.83;62.02;101802.66;10195233;28;20058;-69
2021/09/19 14:06:15;;;;;;;5.07;2.63;;;;;;;15.74;62.78;101803.50;10195392;28;20660;-70
2021/09/19 14:11:12;;;;;;;6.32;2.50;;;;;;;15.74;63.26;101803.50;10195771;28;20096;-71
2021/09/19 14:16:09;;;;;;;6.05;2.83;;;;;;;15.63;62.76;101810.44;10194525;28;20065;-70
2021/09/19 14:21:06;;;;;;;6.32;2.83;;;;;;;15.67;63.80;101816.94;10195114;28;20041;-69
2021/09/19 14:26:02;;;;;;;6.93;2.85;;;;;;;15.66;63.93;101812.53;10194410;28;20128;-71
2021/09/19 14:30:59;;;;;;;5.57;2.17;;;;;;;15.68;63.78;101804.75;10194590;28;20400;-70
2021/09/19 14:35:55;;;;;;;4.18;1.90;;;;;;;15.67;63.90;101807.84;10194719;28;20080;-71
2021/09/19 14:40:51;;;;;;;7.22;2.28;;;;;;;15.58;63.97;101805.91;10194890;28;20092;-70
2021/09/19 14:45:50;;;;;;;5.60;2.30;;;;;;;15.64;64.54;101809.31;10194174;28;20077;-70
2021/09/19 14:50:48;;;;;;;5.75;2.30;;;;;;;15.62;63.66;101806.06;10193928;28;20424;-69
2021/09/19 14:55:44;;;;;;;4.93;2.28;;;;;;;15.68;65.09;101810.28;10194193;28;20050;-70
2021/09/19 15:00:41;;;;;;;5.68;1.90;;;;;;;15.62;64.09;101806.06;10193687;28;20073;-70
2021/09/19 15:05:38;;;;;;;5.75;2.40;;;;;;;15.57;63.45;101808.97;10200299;28;20520;-70
2021/09/19 15:10:34;;;;;;;8.02;2.20;;;;;;;15.61;64.14;101809.16;10202000;28;20061;-70
2021/09/19 15:15:31;;;;;;;4.65;2.10;;;;;;;15.60;64.27;101802.84;10202257;28;20049;-70
2021/09/19 15:20:28;;;;;;;5.20;2.28;;;;;;;15.60;64.08;101802.03;10202052;28;20456;-69
2021/09/19 15:25:24;;;;;;;6.30;2.88;;;;;;;15.52;64.11;101796.16;10201600;28;20077;-71
2021/09/19 15:30:21;;;;;;;6.40;2.15;;;;;;;15.53;64.10;101802.50;10201770;28;20065;-70
2021/09/19 15:35:17;;;;;;;6.22;1.95;;;;;;;15.47;63.11;101803.81;10200741;28;20156;-70
2021/09/19 15:40:21;;;;;;;4.28;1.50;;;;;;;15.46;63.96;101808.50;10200606;28;20046;-69
2021/09/19 15:45:20;;;;;;;5.32;1.95;;;;;;;15.40;62.88;101809.00;10200487;28;20077;-71
2021/09/19 15:50:16;;;;;;;3.63;1.42;;;;;;;15.31;62.30;101815.28;10183501;28;20124;-71
2021/09/19 15:55:13;;;;;;;5.88;1.75;;;;;;;15.26;63.19;101815.47;10200485;28;20538;-70
2021/09/19 16:00:09;;;;;;;5.18;1.60;;;;;;;15.23;62.91;101810.59;10200486;28;20049;-69
2021/09/19 16:05:07;;;;;;;2.90;1.38;;;;;;;15.26;64.26;101815.47;10199294;28;20104;-69
2021/09/19 16:10:04;;;;;;;4.38;1.60;;;;;;;15.22;63.49;101820.00;10199637;28;20054;-70
2021/09/19 16:15:01;;;;;;;4.90;1.90;;;;;;;15.20;63.67;101822.28;10198907;28;20132;-70
2021/09/19 16:19:57;;;;;;;3.95;1.55;;;;;;;15.17;64.20;101816.59;10199475;28;20050;-71
2021/09/19 16:24:53;;;;;;;6.10;1.55;;;;;;;15.11;64.40;101821.47;10199313;28;20167;-70
2021/09/19 16:29:50;;;;;;;9.80;2.50;;;;;;;15.13;64.77;101816.41;10198299;28;20530;-70
2021/09/19 16:34:46;;;;;;;4.95;1.77;;;;;;;15.08;64.55;101813.81;10198970;28;20034;-70
2021/09/19 16:39:43;;;;;;;4.97;1.65;;;;;;;14.96;64.07;101817.19;10198112;28;20042;-70
2021/09/19 16:44:39;;;;;;;4.50;1.40;;;;;;;15.01;64.15;101810.72;10198224;28;20054;-70
2021/09/19 16:49:36;;;;;;;6.28;1.65;;;;;;;14.97;64.79;101812.50;10197798;28;20072;-70
2021/09/19 16:54:32;;;;;;;4.65;1.60;;;;;;;14.92;65.53;101814.28;10198016;28;20436;-71
2021/09/19 16:59:29;;;;;;;5.97;1.70;;;;;;;14.90;66.03;101816.56;10197434;28;20045;-70
2021/09/19 17:04:25;;;;;;;8.25;2.00;;;;;;;14.84;66.10;101820.56;10197916;28;20206;-71
2021/09/19 17:09:22;;;;;;;4.18;1.60;;;;;;;14.82;66.93;101822.84;10196833;28;20566;-70
2021/09/19 17:14:18;;;;;;;5.65;2.17;;;;;;;14.79;66.65;101819.94;10196669;28;20068;-70
2021/09/19 17:19:15;;;;;;;4.85;1.55;;;;;;;14.74;66.91;101820.88;10196757;28;20054;-70
2021/09/19 17:24:12;;;;;;;5.43;2.03;;;;;;;14.72;66.92;101828.66;10196859;28;20058;-70
2021/09/19 17:29:08;;;;;;;5.72;2.20;;;;;;;14.69;67.51;101834.78;10196208;28;20045;-69
2021/09/19 17:34:04;;;;;;;5.63;2.28;;;;;;;14.66;67.49;101829.91;10179244;28;20062;-70
2021/09/19 17:39:01;;;;;;;6.90;2.22;;;;;;;14.62;67.90;101845.44;10195729;28;20076;-70
2021/09/19 17:43:58;;;;;;;9.75;2.45;;;;;;;14.58;68.50;101849.97;10196304;28;20104;-70
2021/09/19 17:48:54;;;;;;;5.65;2.30;;;;;;;14.56;68.88;101846.72;10195196;28;20476;-69
2021/09/19 17:53:52;;;;;;;6.65;2.42;;;;;;;14.53;68.48;101842.63;10196211;28;20451;-70
2021/09/19 17:58:49;;;;;;;6.70;2.30;;;;;;;14.48;69.06;101851.84;10195460;28;20463;-69
2021/09/19 18:03:45;;;;;;;5.80;2.10;;;;;;;14.38;68.08;101852.09;10195042;28;20080;-70
2021/09/19 18:08:42;;;;;;;4.35;1.60;;;;;;;14.21;68.12;101852.81;10195573;28;20054;-70
2021/09/19 18:13:38;;;;;;;4.85;1.70;;;;;;;14.30;67.82;101855.63;10194710;28;20057;-70
2021/09/19 18:18:35;;;;;;;5.32;1.55;;;;;;;14.24;68.46;101865.13;10195370;28;20640;-70
2021/09/19 18:23:31;;;;;;;5.15;1.60;;;;;;;14.24;68.33;101867.88;10194844;28;20409;-71
2021/09/19 18:28:34;;;;;;;7.18;1.83;;;;;;;14.21;69.10;101874.03;10195055;28;20499;-69
2021/09/19 18:33:31;;;;;;;6.90;2.15;;;;;;;14.20;69.60;101883.38;10194454;28;20061;-69
2021/09/19 18:38:27;;;;;;;3.42;1.38;;;;;;;14.18;69.88;101891.97;10193938;28;20512;-69
2021/09/19 18:43:24;;;;;;;5.07;1.55;;;;;;;14.12;70.03;101892.41;10194903;28;20070;-68
2021/09/19 18:48:21;;;;;;;8.88;1.80;;;;;;;14.07;70.00;101896.91;10176948;28;20073;-70
2021/09/19 18:53:19;;;;;;;6.90;1.52;;;;;;;14.15;70.23;101897.28;10194979;28;20084;-70
2021/09/19 18:58:15;;;;;;;4.35;1.45;;;;;;;14.13;69.70;101896.78;10186066;28;20566;-70
2021/09/19 19:03:12;;;;;;;5.20;1.38;;;;;;;14.06;69.33;101894.44;10194813;28;20412;-70
2021/09/19 19:08:09;;;;;;;2.80;1.27;;;;;;;13.98;69.52;101904.28;10193929;28;20060;-70
2021/09/19 19:13:05;;;;;;;4.15;1.42;;;;;;;13.99;69.26;101911.38;10194374;28;20096;-70
2021/09/19 19:18:02;;;;;;;5.55;2.05;;;;;;;13.86;69.39;101912.28;10194236;28;20050;-70
2021/09/19 19:22:58;;;;;;;3.50;1.40;;;;;;;13.82;68.92;101922.25;10193832;28;20073;-70
2021/09/19 19:27:55;;;;;;;5.18;1.92;;;;;;;13.91;68.95;101925.09;10193521;28;20046;-70
2021/09/19 19:32:51;;;;;;;4.43;1.70;;;;;;;13.93;69.52;101929.16;10193678;28;20080;-69
2021/09/19 19:37:48;;;;;;;6.13;1.83;;;;;;;13.84;69.44;101931.81;10193783;28;20483;-70
2021/09/19 19:42:46;;;;;;;3.80;1.70;;;;;;;13.88;69.70;101943.03;10192987;28;20463;-70
2021/09/19 19:47:43;;;;;;;5.68;1.95;;;;;;;13.82;69.08;101944.25;10193384;28;20057;-70
2021/09/19 19:52:40;;;;;;;3.90;1.90;;;;;;;13.79;68.91;101944.88;10198725;28;20072;-70
2021/09/19 19:57:37;;;;;;;4.68;1.35;;;;;;;13.72;68.69;101941.75;10200195;28;20076;-71
2021/09/19 20:02:34;;;;;;;6.97;1.77;;;;;;;13.72;68.87;101944.50;10199448;28;20053;-70
2021/09/19 20:07:31;;;;;;;6.82;1.73;;;;;;;13.65;69.32;101956.72;10199875;28;20049;-70
2021/09/19 20:12:28;;;;;;;5.45;1.58;;;;;;;13.67;69.73;101954.47;10199977;28;20046;-67
2021/09/19 20:17:25;;;;;;;6.22;1.60;;;;;;;13.63;69.76;101953.44;10199585;28;20042;-70
2021/09/19 20:22:21;;;;;;;5.25;1.48;;;;;;;13.64;69.96;101957.81;10199880;28;20084;-71
2021/09/19 20:27:18;;;;;;;4.07;1.42;;;;;;;13.62;69.82;101951.84;10198769;28;20050;-70
2021/09/19 20:32:15;;;;;;;4.28;1.63;;;;;;;13.56;69.63;101963.25;10198825;28;20125;-71
2021/09/19 20:37:13;;;;;;;2.85;1.23;;;;;;;13.54;69.79;101965.50;10198999;28;20053;-71
2021/09/19 20:42:10;;;;;;;5.40;1.48;;;;;;;13.52;70.52;101963.03;10198483;28;20049;-71
2021/09/19 20:47:07;;;;;;;4.28;1.20;;;;;;;13.48;69.54;101967.50;10198822;28;20116;-70
2021/09/19 20:52:04;;;;;;;3.17;1.42;;;;;;;13.49;69.81;101974.66;10198397;28;20507;-71
2021/09/19 20:57:01;;;;;;;5.15;1.50;;;;;;;13.46;70.29;101975.28;10198721;28;20108;-71
2021/09/19 21:01:57;;;;;;;3.20;1.08;;;;;;;13.50;69.91;101981.75;10197760;28;20120;-71
2021/09/19 21:06:54;;;;;;;4.90;1.70;;;;;;;13.54;69.81;101977.28;10198781;28;20049;-71
2021/09/19 21:11:50;;;;;;;4.18;1.58;;;;;;;13.45;70.24;101979.94;10199954;28;20099;-70
2021/09/19 21:16:47;;;;;;;4.40;1.30;;;;;;;13.35;69.48;101971.91;10197472;28;20041;-70
2021/09/19 21:21:44;;;;;;;3.72;1.27;;;;;;;13.44;70.67;101972.00;10204435;28;20072;-71
2021/09/19 21:26:42;;;;;;;3.97;1.73;;;;;;;13.40;70.76;101973.75;10196306;28;20073;-70
2021/09/19 21:31:39;;;;;;;3.72;1.65;;;;;;;13.35;70.92;101973.84;10196917;28;20065;-71
2021/09/19 21:36:37;;;;;;;4.72;1.58;;;;;;;13.36;70.47;101975.47;10197178;28;20053;-70
2021/09/19 21:41:33;;;;;;;5.93;2.10;;;;;;;13.33;70.44;101993.38;10196254;28;20074;-71
2021/09/19 21:46:30;;;;;;;3.90;1.50;;;;;;;13.37;71.03;101988.09;10196304;28;20085;-70
2021/09/19 21:51:26;;;;;;;6.35;1.83;;;;;;;13.30;70.78;102004.16;10197270;28;20046;-71
2021/09/19 21:56:23;;;;;;;6.43;1.58;;;;;;;13.31;71.28;101992.06;10195917;28;20108;-71
2021/09/19 22:01:19;;;;;;;4.50;1.65;;;;;;;13.25;70.66;101997.63;10196109;28;20041;-70
2021/09/19 22:06:18;;;;;;;4.25;1.73;;;;;;;13.21;71.90;101996.59;10195802;28;20061;-69
2021/09/19 22:11:19;;;;;;;5.43;1.55;;;;;;;13.23;71.52;101994.38;10196292;28;20437;-71
2021/09/19 22:16:16;;;;;;;4.80;1.38;;;;;;;13.18;71.03;101994.47;10194655;28;20046;-72
2021/09/19 22:21:12;;;;;;;4.70;1.60;;;;;;;13.17;70.54;101995.56;10195293;28;20050;-70
2021/09/19 22:26:08;;;;;;;5.82;1.67;;;;;;;13.14;70.84;101996.19;10195576;28;20070;-71
2021/09/19 22:31:05;;;;;;;4.80;1.50;;;;;;;13.12;71.21;102003.91;10195429;28;20058;-70
2021/09/19 22:36:02;;;;;;;4.53;1.52;;;;;;;13.05;70.84;101996.06;10195359;28;20508;-71
2021/09/19 22:40:58;;;;;;;3.45;1.30;;;;;;;13.07;70.87;102006.75;10195156;28;20045;-71
2021/09/19 22:45:55;;;;;;;6.28;1.75;;;;;;;13.10;70.88;102005.34;10194683;28;20492;-71